createdAt,value
2023-01-26T00:02:18.483Z,55.05
2023-01-26T00:04:45.797Z,57.83
2023-01-26T00:07:13.218Z,55.80
2023-01-26T00:09:40.676Z,54.00
2023-01-26T00:12:09.152Z,54.30
2023-01-26T00:14:50.173Z,58.10
2023-01-26T00:17:26.540Z,58.80
2023-01-26T00:19:56.862Z,60.58
2023-01-26T00:22:26.468Z,63.05
2023-01-26T00:24:56.527Z,64.22
2023-01-26T00:27:24.105Z,65.97
2023-01-26T00:29:51.560Z,66.60
2023-01-26T00:32:19.045Z,65.05
2023-01-26T00:34:46.472Z,65.32
2023-01-26T00:37:13.925Z,63.88
2023-01-26T00:39:42.779Z,61.33
2023-01-26T00:42:14.076Z,62.13
2023-01-26T00:44:43.519Z,62.67
2023-01-26T00:47:12.740Z,63.30
2023-01-26T00:49:40.991Z,61.33
2023-01-26T00:52:08.487Z,55.45
2023-01-26T00:54:35.991Z,52.45
2023-01-26T00:57:03.382Z,53.78
2023-01-26T00:59:32.598Z,47.08
2023-01-26T01:02:02.974Z,47.65
2023-01-26T01:04:30.982Z,47.00
2023-01-26T01:07:00.381Z,46.95
2023-01-26T01:09:29.069Z,46.97
2023-01-26T01:11:56.260Z,45.95
2023-01-26T01:14:23.919Z,44.55
2023-01-26T01:16:51.317Z,46.05
2023-01-26T01:19:19.325Z,44.72
2023-01-26T01:21:46.841Z,43.00
2023-01-26T01:24:15.192Z,43.00
2023-01-26T01:26:42.659Z,43.78
2023-01-26T01:29:13.934Z,41.75
2023-01-26T01:31:43.768Z,44.58
2023-01-26T01:34:11.432Z,42.13
2023-01-26T01:36:40.932Z,41.95
2023-01-26T01:39:08.311Z,39.67
2023-01-26T01:41:35.780Z,37.05
2023-01-26T01:44:24.451Z,34.92
2023-01-26T01:46:59.254Z,33.72
2023-01-26T01:49:43.103Z,33.80
2023-01-26T01:52:15.362Z,30.90
2023-01-26T01:54:52.764Z,31.30
2023-01-26T01:57:28.848Z,32.08
2023-01-26T02:00:07.437Z,30.67
2023-01-26T02:02:35.404Z,28.90
2023-01-26T02:05:14.240Z,27.58
2023-01-26T02:07:45.876Z,25.58
2023-01-26T02:10:19.453Z,27.10
2023-01-26T02:12:55.874Z,26.63
2023-01-26T02:15:24.061Z,25.30
2023-01-26T02:17:55.412Z,25.65
2023-01-26T02:20:47.225Z,25.60
2023-01-26T02:23:29.438Z,25.08
2023-01-26T02:25:57.585Z,25.77
2023-01-26T02:28:29.773Z,25.13
2023-01-26T02:30:57.797Z,26.70
2023-01-26T02:33:29.637Z,25.95
2023-01-26T02:35:59.860Z,23.83
2023-01-26T02:38:34.398Z,25.30
2023-01-26T02:41:08.286Z,22.02
2023-01-26T02:43:37.316Z,20.42
2023-01-26T02:46:05.513Z,21.40
2023-01-26T02:48:52.293Z,22.25
2023-01-26T02:51:19.497Z,21.75
2023-01-26T02:53:47.068Z,22.25
2023-01-26T02:56:15.509Z,22.48
2023-01-26T02:58:42.942Z,22.20
2023-01-26T03:01:10.469Z,23.80
2023-01-26T03:03:45.370Z,21.85
2023-01-26T03:06:15.647Z,22.67
2023-01-26T03:08:43.203Z,21.52
2023-01-26T03:11:10.738Z,21.95
2023-01-26T03:13:39.216Z,20.90
2023-01-26T03:16:10.609Z,22.35
2023-01-26T03:18:57.877Z,20.30
2023-01-26T03:21:43.514Z,22.17
2023-01-26T03:24:31.588Z,21.67
2023-01-26T03:27:19.255Z,22.25
2023-01-26T03:29:47.070Z,22.90
2023-01-26T03:32:14.544Z,23.50
2023-01-26T03:34:43.925Z,24.08
2023-01-26T03:37:13.292Z,24.52
2023-01-26T03:39:59.217Z,24.27
2023-01-26T03:42:50.547Z,26.75
2023-01-26T03:45:36.744Z,25.08
2023-01-26T03:48:33.815Z,24.73
2023-01-26T03:51:27.139Z,25.02
2023-01-26T03:54:12.799Z,25.48
2023-01-26T03:56:40.291Z,26.25
2023-01-26T03:59:08.724Z,25.83
2023-01-26T04:01:42.190Z,25.33
2023-01-26T04:04:30.122Z,25.73
2023-01-26T04:07:16.412Z,26.05
2023-01-26T04:09:44.229Z,25.45
2023-01-26T04:12:12.496Z,26.95
2023-01-26T04:14:58.775Z,26.73
2023-01-26T04:17:44.867Z,26.27
2023-01-26T04:20:33.083Z,26.83
2023-01-26T04:23:00.157Z,25.80
2023-01-26T04:25:27.693Z,26.10
2023-01-26T04:27:55.186Z,33.00
2023-01-26T04:30:22.604Z,31.65
2023-01-26T04:32:52.054Z,29.63
2023-01-26T04:35:19.615Z,28.38
2023-01-26T04:37:48.163Z,27.20
2023-01-26T04:40:16.646Z,27.80
2023-01-26T04:42:43.995Z,28.05
2023-01-26T04:45:12.198Z,27.20
2023-01-26T04:47:40.376Z,27.77
2023-01-26T04:50:08.599Z,28.23
2023-01-26T04:52:35.869Z,28.17
2023-01-26T04:55:03.467Z,29.02
2023-01-26T04:57:30.749Z,26.63
2023-01-26T04:59:58.314Z,28.45
2023-01-26T05:02:25.375Z,29.85
2023-01-26T05:04:52.659Z,28.33
2023-01-26T05:07:20.069Z,29.33
2023-01-26T05:09:47.592Z,30.33
2023-01-26T05:12:33.442Z,30.17
2023-01-26T05:15:01.086Z,31.42
2023-01-26T05:17:29.343Z,31.13
2023-01-26T05:19:56.916Z,32.83
2023-01-26T05:22:26.430Z,31.63
2023-01-26T05:24:54.079Z,29.98
2023-01-26T05:27:23.502Z,29.60
2023-01-26T05:29:51.866Z,30.40
2023-01-26T05:32:19.924Z,30.25
2023-01-26T05:34:47.415Z,30.05
2023-01-26T05:37:15.881Z,31.08
2023-01-26T05:39:43.199Z,31.35
2023-01-26T05:42:13.916Z,31.85
2023-01-26T05:44:41.241Z,31.65
2023-01-26T05:47:08.788Z,32.03
2023-01-26T05:49:43.135Z,31.55
2023-01-26T05:52:16.280Z,32.38
2023-01-26T05:54:44.053Z,33.10
2023-01-26T05:57:12.422Z,31.60
2023-01-26T05:59:40.204Z,25.90
2023-01-26T06:02:10.014Z,23.52
2023-01-26T06:04:37.459Z,32.10
2023-01-26T06:07:05.152Z,31.13
2023-01-26T06:09:33.350Z,28.23
2023-01-26T06:12:00.760Z,27.67
2023-01-26T06:14:28.159Z,28.52
2023-01-26T06:16:57.188Z,31.38
2023-01-26T06:19:26.663Z,28.33
2023-01-26T06:21:55.176Z,24.08
2023-01-26T06:24:24.142Z,24.27
2023-01-26T06:26:51.661Z,25.60
2023-01-26T06:29:19.123Z,25.10
2023-01-26T06:31:46.559Z,25.02
2023-01-26T06:34:17.086Z,26.70
2023-01-26T06:36:44.588Z,26.60
2023-01-26T06:39:13.029Z,26.70
2023-01-26T06:41:42.709Z,27.80
2023-01-26T06:44:11.579Z,26.33
2023-01-26T06:46:40.161Z,27.35
2023-01-26T06:49:07.479Z,27.70
2023-01-26T06:51:48.337Z,28.20
2023-01-26T06:54:21.930Z,23.75
2023-01-26T06:56:49.280Z,25.52
2023-01-26T06:59:16.846Z,29.23
2023-01-26T07:01:50.546Z,21.40
2023-01-26T07:04:18.815Z,20.98
2023-01-26T07:06:46.366Z,24.50
2023-01-26T07:09:14.750Z,27.27
2023-01-26T07:11:42.165Z,27.08
2023-01-26T07:14:09.676Z,23.23
2023-01-26T07:16:39.216Z,26.48
2023-01-26T07:19:08.257Z,23.48
2023-01-26T07:21:36.445Z,22.67
2023-01-26T07:24:04.749Z,20.33
2023-01-26T07:26:31.988Z,17.92
2023-01-26T07:29:01.749Z,18.23
2023-01-26T07:31:28.981Z,23.63
2023-01-26T07:33:56.468Z,18.85
2023-01-26T07:36:24.954Z,18.10
2023-01-26T07:38:54.412Z,17.70
2023-01-26T07:41:21.877Z,14.60
2023-01-26T07:43:51.288Z,16.02
2023-01-26T07:46:18.406Z,14.45
2023-01-26T07:48:45.808Z,15.05
2023-01-26T07:51:13.240Z,14.23
2023-01-26T07:53:42.562Z,15.05
2023-01-26T07:56:16.385Z,16.75
2023-01-26T07:58:43.971Z,18.30
2023-01-26T08:01:15.875Z,16.05
2023-01-26T08:03:45.829Z,16.20
2023-01-26T08:06:15.245Z,14.68
2023-01-26T08:08:43.680Z,15.18
2023-01-26T08:17:22.114Z,17.05
2023-01-26T08:19:49.134Z,14.85
2023-01-26T08:22:16.406Z,13.27
2023-01-26T08:24:43.458Z,14.50
2023-01-26T08:27:10.831Z,14.77
2023-01-26T08:29:39.004Z,14.80
2023-01-26T08:32:06.599Z,15.35
2023-01-26T08:34:36.693Z,16.38
2023-01-26T08:37:03.859Z,14.68
2023-01-26T08:39:31.131Z,14.70
2023-01-26T08:41:58.740Z,14.70
2023-01-26T08:44:26.028Z,14.13
2023-01-26T08:46:53.215Z,13.45
2023-01-26T08:49:20.456Z,14.20
2023-01-26T08:51:47.485Z,14.75
2023-01-26T08:54:14.905Z,12.60
2023-01-26T08:56:42.325Z,16.35
2023-01-26T08:59:09.490Z,13.32
2023-01-26T09:01:37.790Z,13.80
2023-01-26T09:04:05.296Z,13.10
2023-01-26T09:06:33.482Z,14.77
2023-01-26T09:09:00.668Z,14.13
2023-01-26T09:11:28.216Z,13.43
2023-01-26T09:13:58.032Z,13.60
2023-01-26T09:16:25.971Z,14.23
2023-01-26T09:18:54.012Z,13.43
2023-01-26T09:21:26.061Z,14.07
2023-01-26T09:23:53.429Z,13.73
2023-01-26T09:26:20.639Z,14.18
2023-01-26T09:28:57.859Z,14.85
2023-01-26T09:31:25.372Z,14.27
2023-01-26T09:33:52.887Z,14.48
2023-01-26T09:36:22.203Z,14.48
2023-01-26T09:38:50.479Z,14.23
2023-01-26T09:41:45.133Z,13.95
2023-01-26T09:44:24.537Z,13.98
2023-01-26T09:47:01.293Z,14.27
2023-01-26T09:50:26.129Z,13.75
2023-01-26T09:53:03.559Z,14.20
2023-01-26T09:55:31.991Z,14.98
2023-01-26T09:58:04.382Z,13.20
2023-01-26T10:00:46.529Z,15.77
2023-01-26T10:03:41.241Z,17.27
2023-01-26T10:06:31.623Z,16.70
2023-01-26T10:09:03.510Z,16.65
2023-01-26T10:11:45.218Z,16.13
2023-01-26T10:14:15.180Z,15.30
2023-01-26T10:16:47.309Z,16.65
2023-01-26T10:19:23.916Z,15.95
2023-01-26T10:21:54.205Z,16.30
2023-01-26T10:24:24.365Z,15.10
2023-01-26T10:26:57.449Z,15.15
2023-01-26T10:29:26.192Z,17.40
2023-01-26T10:31:53.381Z,16.63
2023-01-26T10:34:26.586Z,15.02
2023-01-26T10:37:23.114Z,16.17
2023-01-26T10:40:07.773Z,15.48
2023-01-26T10:42:36.866Z,12.65
2023-01-26T10:45:24.381Z,13.48
2023-01-26T10:48:20.466Z,12.43
2023-01-26T10:50:48.869Z,12.60
2023-01-26T10:53:30.445Z,13.75
2023-01-26T10:56:18.015Z,14.05
2023-01-26T10:58:57.474Z,12.35
2023-01-26T11:01:27.830Z,13.32
2023-01-26T11:04:15.487Z,13.05
2023-01-26T11:06:42.863Z,12.52
2023-01-26T11:09:21.503Z,13.13
2023-01-26T11:12:06.056Z,14.02
2023-01-26T11:14:33.778Z,13.35
2023-01-26T11:17:20.412Z,13.27
2023-01-26T11:20:24.579Z,12.85
2023-01-26T11:26:02.683Z,12.82
2023-01-26T11:28:51.777Z,13.32
2023-01-26T11:31:33.116Z,13.57
2023-01-26T11:34:13.213Z,14.95
2023-01-26T11:37:09.191Z,12.20
2023-01-26T11:39:51.909Z,13.15
2023-01-26T11:42:40.435Z,13.57
2023-01-26T11:45:36.969Z,12.98
2023-01-26T11:48:22.755Z,11.98
2023-01-26T11:50:52.877Z,11.70
2023-01-26T11:53:58.481Z,11.38
2023-01-26T11:56:39.821Z,12.05
2023-01-26T11:59:20.380Z,12.85
2023-01-26T12:02:27.465Z,12.82
2023-01-26T12:05:01.330Z,13.18
2023-01-26T12:07:34.084Z,13.52
2023-01-26T12:10:05.629Z,13.63
2023-01-26T12:12:43.759Z,13.90
2023-01-26T12:15:30.056Z,13.75
2023-01-26T12:18:06.394Z,12.95
2023-01-26T12:20:53.920Z,12.30
2023-01-26T12:23:39.464Z,13.88
2023-01-26T12:26:18.991Z,13.25
2023-01-26T12:29:28.364Z,13.55
2023-01-26T12:32:14.950Z,13.27
2023-01-26T12:34:42.135Z,14.30
2023-01-26T12:37:32.824Z,14.02
2023-01-26T12:40:09.520Z,14.13
2023-01-26T12:42:46.471Z,14.55
2023-01-26T12:45:20.978Z,13.93
2023-01-26T12:47:51.780Z,14.25
2023-01-26T12:50:39.041Z,13.05
2023-01-26T12:53:32.693Z,13.82
2023-01-26T12:56:17.755Z,15.02
2023-01-26T12:58:50.628Z,13.75
2023-01-26T13:01:22.431Z,14.30
2023-01-26T13:04:04.461Z,14.82
2023-01-26T13:06:33.946Z,14.35
2023-01-26T13:09:16.647Z,14.43
2023-01-26T13:11:47.175Z,14.73
2023-01-26T13:14:37.821Z,14.60
2023-01-26T13:17:16.952Z,14.38
2023-01-26T13:19:44.395Z,13.57
2023-01-26T13:22:25.690Z,14.43
2023-01-26T13:25:12.650Z,13.50
2023-01-26T13:27:40.016Z,15.05
2023-01-26T13:30:26.144Z,15.75
2023-01-26T13:33:02.406Z,14.52
2023-01-26T13:35:31.165Z,15.20
2023-01-26T13:38:10.241Z,15.25
2023-01-26T13:40:42.771Z,14.48
2023-01-26T13:43:40.616Z,15.87
2023-01-26T13:46:19.134Z,15.18
2023-01-26T13:48:48.734Z,14.18
2023-01-26T13:51:17.912Z,14.18
2023-01-26T13:53:50.380Z,14.77
2023-01-26T13:56:30.401Z,14.60
2023-01-26T13:59:17.722Z,14.98
2023-01-26T14:01:51.377Z,15.32
2023-01-26T14:04:32.604Z,15.27
2023-01-26T14:07:19.320Z,15.38
2023-01-26T14:09:55.206Z,14.50
2023-01-26T14:12:45.889Z,15.98
2023-01-26T14:15:33.066Z,16.15
2023-01-26T14:18:07.092Z,15.05
2023-01-26T14:20:38.275Z,15.18
2023-01-26T14:23:11.681Z,15.27
2023-01-26T14:28:13.475Z,16.45
2023-01-26T14:30:43.138Z,15.65
2023-01-26T14:33:15.818Z,16.10
2023-01-26T14:35:55.302Z,15.77
2023-01-26T14:38:22.563Z,15.98
2023-01-26T14:40:55.197Z,15.95
2023-01-26T14:43:22.688Z,16.52
2023-01-26T14:45:55.303Z,16.13
2023-01-26T14:48:37.836Z,18.20
2023-01-26T14:51:11.295Z,15.73
2023-01-26T14:53:38.559Z,16.13
2023-01-26T14:56:18.662Z,16.70
2023-01-26T14:58:53.320Z,16.75
2023-01-26T15:01:23.042Z,15.98
2023-01-26T15:03:57.640Z,17.00
2023-01-26T15:06:29.642Z,16.80
2023-01-26T15:09:21.605Z,17.63
2023-01-26T15:12:17.341Z,17.67
2023-01-26T15:14:46.190Z,17.73
2023-01-26T15:17:41.578Z,17.67
2023-01-26T15:20:24.100Z,17.58
2023-01-26T15:22:53.568Z,17.38
2023-01-26T15:25:29.185Z,18.27
2023-01-26T15:27:59.564Z,17.42
2023-01-26T15:30:34.271Z,19.27
2023-01-26T15:33:02.460Z,18.00
2023-01-26T15:35:32.736Z,17.27
2023-01-26T15:38:14.010Z,17.70
2023-01-26T15:40:41.223Z,17.42
2023-01-26T15:43:19.506Z,17.27
2023-01-26T15:45:57.519Z,17.25
2023-01-26T15:48:25.683Z,16.13
2023-01-26T15:50:53.718Z,17.15
2023-01-26T15:53:22.530Z,17.17
2023-01-26T15:55:56.408Z,17.63
2023-01-26T15:58:29.249Z,15.80
2023-01-26T16:00:59.192Z,17.52
2023-01-26T16:03:26.626Z,17.83
2023-01-26T16:05:54.415Z,17.95
2023-01-26T16:08:23.597Z,16.98
2023-01-26T16:10:51.608Z,18.00
2023-01-26T16:13:20.266Z,17.85
2023-01-26T16:15:53.297Z,19.23
2023-01-26T16:18:26.714Z,17.17
2023-01-26T16:23:24.754Z,18.15
2023-01-26T16:25:53.601Z,19.08
2023-01-26T16:28:21.189Z,19.42
2023-01-26T16:30:51.131Z,19.10
2023-01-26T16:33:24.986Z,20.88
2023-01-26T16:35:52.473Z,21.38
2023-01-26T16:38:20.921Z,24.73
2023-01-26T16:40:50.429Z,45.60
2023-01-26T16:43:24.106Z,30.48
2023-01-26T16:45:55.417Z,28.98
2023-01-26T16:48:23.904Z,27.95
2023-01-26T16:50:53.717Z,25.63
2023-01-26T16:53:27.835Z,24.17
2023-01-26T16:55:55.622Z,26.50
2023-01-26T16:58:26.803Z,27.35
2023-01-26T17:00:55.671Z,37.83
2023-01-26T17:03:23.699Z,33.78
2023-01-26T17:05:51.127Z,32.88
2023-01-26T17:08:18.481Z,38.20
2023-01-26T17:11:19.938Z,47.90
2023-01-26T17:13:48.735Z,45.25
2023-01-26T17:16:20.958Z,42.42
2023-01-26T17:18:49.509Z,39.30
2023-01-26T17:21:19.944Z,34.78
2023-01-26T17:23:54.103Z,33.83
2023-01-26T17:26:22.215Z,35.40
2023-01-26T17:28:52.992Z,36.80
2023-01-26T17:31:22.632Z,34.60
2023-01-26T17:33:52.542Z,35.22
2023-01-26T17:36:22.245Z,33.75
2023-01-26T17:38:55.391Z,36.40
2023-01-26T17:41:23.908Z,56.55
2023-01-26T17:43:51.645Z,44.78
2023-01-26T17:46:25.175Z,32.30
2023-01-26T17:48:55.158Z,31.45
2023-01-26T17:51:23.810Z,31.27
2023-01-26T17:53:51.816Z,28.70
2023-01-26T17:56:22.128Z,28.95
2023-01-26T17:58:52.868Z,31.60
2023-01-26T18:01:22.037Z,31.92
2023-01-26T18:03:54.291Z,36.78
2023-01-26T18:06:22.243Z,39.10
2023-01-26T18:08:56.461Z,37.33
2023-01-26T18:11:24.156Z,35.55
2023-01-26T18:13:53.627Z,71.90
2023-01-26T18:16:22.510Z,54.55
2023-01-26T18:18:57.963Z,53.65
2023-01-26T18:21:35.485Z,54.33
2023-01-26T18:24:05.447Z,54.95
2023-01-26T18:26:38.518Z,55.63
2023-01-26T18:29:07.339Z,54.33
2023-01-26T18:31:47.597Z,58.75
2023-01-26T18:34:15.674Z,58.42
2023-01-26T18:36:45.844Z,48.28
2023-01-26T18:39:14.990Z,49.35
2023-01-26T18:41:44.745Z,44.95
2023-01-26T18:44:12.590Z,55.40
2023-01-26T18:46:40.814Z,58.35
2023-01-26T18:49:11.165Z,56.35
2023-01-26T18:51:39.173Z,46.00
2023-01-26T18:54:20.503Z,73.93
2023-01-26T18:56:48.121Z,63.45
2023-01-26T18:59:15.883Z,87.47
2023-01-26T19:01:44.124Z,59.50
2023-01-26T19:04:13.452Z,61.72
2023-01-26T19:06:41.486Z,84.00
2023-01-26T19:09:09.446Z,128.73
2023-01-26T19:11:39.563Z,108.10
2023-01-26T19:14:09.090Z,79.80
2023-01-26T19:16:37.904Z,56.45
2023-01-26T19:19:06.281Z,63.90
2023-01-26T19:21:34.581Z,43.63
2023-01-26T19:24:08.754Z,43.38
2023-01-26T19:26:37.774Z,46.80
2023-01-26T19:29:06.391Z,47.72
2023-01-26T19:31:36.751Z,50.95
2023-01-26T19:34:10.933Z,49.92
2023-01-26T19:36:41.585Z,49.05
2023-01-26T19:39:11.601Z,47.15
2023-01-26T19:41:42.093Z,50.88
2023-01-26T19:44:16.393Z,47.90
2023-01-26T19:46:45.873Z,49.88
2023-01-26T19:49:22.460Z,52.08
2023-01-26T19:51:51.223Z,85.03
2023-01-26T19:54:19.648Z,94.05
2023-01-26T19:56:49.124Z,80.65
2023-01-26T19:59:17.495Z,64.40
2023-01-26T20:01:51.781Z,97.35
2023-01-26T20:04:20.100Z,83.53
2023-01-26T20:06:50.067Z,59.67
2023-01-26T20:09:18.201Z,58.65
2023-01-26T20:11:46.645Z,75.38
2023-01-26T20:14:15.155Z,79.88
2023-01-26T20:16:44.018Z,72.72
2023-01-26T20:19:14.445Z,61.58
2023-01-26T20:21:43.363Z,52.90
2023-01-26T20:24:16.209Z,54.95
2023-01-26T20:26:46.706Z,52.55
2023-01-26T20:29:17.365Z,57.05
2023-01-26T20:31:47.393Z,55.50
2023-01-26T20:34:17.000Z,54.17
2023-01-26T20:36:56.711Z,54.83
2023-01-26T20:39:25.868Z,52.38
2023-01-26T20:41:55.847Z,52.25
2023-01-26T20:44:30.175Z,59.35
2023-01-26T20:46:59.359Z,55.58
2023-01-26T20:49:26.851Z,53.90
2023-01-26T20:52:01.106Z,71.65
2023-01-26T20:54:28.917Z,65.88
2023-01-26T20:56:58.803Z,51.85
2023-01-26T20:59:27.040Z,50.75
2023-01-26T21:01:54.888Z,50.63
2023-01-26T21:04:22.753Z,51.10
2023-01-26T21:06:50.586Z,55.50
2023-01-26T21:09:19.030Z,49.75
2023-01-26T21:11:46.855Z,50.40
2023-01-26T21:14:14.164Z,53.05
2023-01-26T21:16:42.165Z,56.40
2023-01-26T21:19:09.718Z,141.20
2023-01-26T21:21:37.096Z,109.80
2023-01-26T21:24:06.144Z,73.68
2023-01-26T21:26:34.029Z,80.82
2023-01-26T21:29:01.659Z,55.70
2023-01-26T21:31:32.851Z,76.78
2023-01-26T21:34:01.645Z,63.67
2023-01-26T21:36:31.728Z,60.72
2023-01-26T21:39:00.756Z,55.20
2023-01-26T21:41:51.819Z,63.22
2023-01-26T21:44:53.608Z,50.42
2023-01-26T21:47:21.259Z,49.78
2023-01-26T21:49:54.953Z,51.72
2023-01-26T21:52:42.885Z,51.10
2023-01-26T21:55:10.290Z,50.85
2023-01-26T21:57:56.088Z,50.70
2023-01-26T22:00:23.458Z,52.17
2023-01-26T22:02:50.621Z,53.22
2023-01-26T22:05:17.839Z,61.28
2023-01-26T22:07:46.313Z,71.95
2023-01-26T22:10:14.001Z,111.57
2023-01-26T22:12:42.777Z,223.00
2023-01-26T22:15:10.658Z,118.03
2023-01-26T22:17:37.730Z,57.13
2023-01-26T22:20:06.463Z,55.53
2023-01-26T22:22:34.850Z,56.63
2023-01-26T22:25:02.151Z,55.90
2023-01-26T22:27:29.474Z,57.22
2023-01-26T22:29:56.991Z,52.15
2023-01-26T22:32:24.489Z,50.90
2023-01-26T22:34:51.985Z,51.38
2023-01-26T22:37:19.320Z,49.97
2023-01-26T22:39:49.245Z,51.15
2023-01-26T22:42:16.254Z,50.83
2023-01-26T22:44:43.820Z,54.08
2023-01-26T22:47:11.269Z,56.40
2023-01-26T22:49:38.778Z,55.58
2023-01-26T22:52:06.944Z,56.08
2023-01-26T22:54:34.166Z,56.70
2023-01-26T22:57:01.605Z,55.53
2023-01-26T22:59:30.129Z,53.28
2023-01-26T23:01:57.520Z,53.30
2023-01-26T23:04:25.114Z,54.47
2023-01-26T23:06:52.473Z,53.47
2023-01-26T23:09:20.998Z,54.05
2023-01-26T23:11:48.538Z,50.15
2023-01-26T23:14:17.047Z,52.60
2023-01-26T23:16:44.556Z,53.05
2023-01-26T23:19:11.946Z,65.43
2023-01-26T23:21:39.277Z,53.15
2023-01-26T23:24:08.318Z,50.30
2023-01-26T23:26:35.802Z,52.08
2023-01-26T23:29:03.718Z,51.33
2023-01-26T23:31:32.326Z,47.95
2023-01-26T23:34:01.771Z,47.88
2023-01-26T23:36:31.411Z,47.63
2023-01-26T23:38:58.744Z,47.75
2023-01-26T23:41:26.134Z,47.83
2023-01-26T23:43:53.594Z,48.08
2023-01-26T23:46:21.089Z,48.50
2023-01-26T23:48:48.496Z,48.40
2023-01-26T23:51:16.617Z,49.08
2023-01-26T23:53:43.949Z,48.92
2023-01-26T23:56:15.782Z,45.80
2023-01-26T23:58:43.235Z,46.05
